Time;durP1;ratioP1;P1;durP2;ratioP2;P2;SDS_P1;SDS_P2;PMS_P1;PMS_P2;Temp;Humidity;BMP_temperature;BMP_pressure;BME280_temperature;BME280_humidity;BME280_pressure;Samples;Min_cycle;Max_cycle;Signal;HPM_P1;HPM_P2
2022/02/21 00:00:26;;;;;;;9.33;6.50;;;;;;;6.07;69.64;101609.97;2089421;28;20614;-71
2022/02/21 00:01:27;;;;;;;9.63;6.00;;;;;;;6.03;68.85;101598.94;2088889;28;20641;-71
2022/02/21 00:02:28;;;;;;;10.07;6.47;;;;;;;6.08;69.52;101597.78;2089308;28;20229;-71
2022/02/21 00:03:30;;;;;;;8.37;6.27;;;;;;;6.05;69.29;101604.06;2089096;28;20186;-71
2022/02/21 00:04:30;;;;;;;8.55;6.35;;;;;;;5.97;69.47;101578.44;2089427;28;20581;-71
2022/02/21 00:05:31;;;;;;;10.27;6.10;;;;;;;6.06;69.16;101598.16;2089090;28;20213;-71
2022/02/21 00:06:31;;;;;;;9.77;6.30;;;;;;;6.08;69.15;101601.34;2088486;28;20264;-71
2022/02/21 00:07:32;;;;;;;8.80;6.73;;;;;;;6.14;69.15;101591.56;2088939;28;20187;-71
2022/02/21 00:08:32;;;;;;;8.57;6.63;;;;;;;6.16;68.90;101599.47;2089191;28;20180;-71
2022/02/21 00:09:33;;;;;;;10.00;6.90;;;;;;;5.16;68.73;101446.72;2088096;28;20190;-71
2022/02/21 00:10:34;;;;;;;8.93;6.70;;;;;;;6.21;69.21;101601.88;2090483;28;20565;-71
2022/02/21 00:11:34;;;;;;;9.40;6.70;;;;;;;6.19;69.24;101591.22;2097289;28;20191;-71
2022/02/21 00:12:35;;;;;;;9.90;6.60;;;;;;;5.63;69.33;101508.13;2097541;28;20183;-71
2022/02/21 00:13:35;;;;;;;7.77;6.50;;;;;;;6.22;69.43;101596.00;2097150;28;20649;-71
2022/02/21 00:14:37;;;;;;;9.07;7.07;;;;;;;6.24;68.80;101596.38;2097433;28;20182;-71
2022/02/21 00:15:37;;;;;;;8.95;6.82;;;;;;;6.24;69.10;101601.09;2097122;28;20594;-71
2022/02/21 00:16:38;;;;;;;11.10;7.10;;;;;;;5.93;68.88;101558.34;2096676;28;20205;-72
2022/02/21 00:17:39;;;;;;;10.50;6.97;;;;;;;5.96;69.11;101582.38;2097277;28;20213;-71
2022/02/21 00:18:39;;;;;;;8.87;6.87;;;;;;;6.08;68.80;101579.34;2097342;28;20185;-71
2022/02/21 00:19:40;;;;;;;8.10;6.40;;;;;;;6.24;68.98;101604.66;2096305;28;20249;-71
2022/02/21 00:20:40;;;;;;;11.87;8.07;;;;;;;6.26;68.91;101598.78;2097403;28;20185;-71
2022/02/21 00:21:41;;;;;;;9.97;7.57;;;;;;;6.28;68.76;101596.41;2097134;28;20956;-71
2022/02/21 00:22:42;;;;;;;10.80;8.10;;;;;;;5.68;68.54;101509.72;2097436;28;20199;-71
2022/02/21 00:23:42;;;;;;;14.00;9.83;;;;;;;6.20;68.65;101598.31;2097002;28;20202;-71
2022/02/21 00:24:43;;;;;;;13.90;9.83;;;;;;;6.21;69.37;101602.63;2097431;28;20431;-71
2022/02/21 00:25:43;;;;;;;12.33;9.83;;;;;;;6.27;68.72;101603.09;2097218;28;20274;-71
2022/02/21 00:26:44;;;;;;;13.70;9.20;;;;;;;6.26;69.47;101598.78;2096683;28;20757;-71
2022/02/21 00:27:44;;;;;;;11.97;9.30;;;;;;;6.14;68.70;101588.03;2097230;28;20577;-71
2022/02/21 00:28:46;;;;;;;13.37;9.30;;;;;;;6.12;69.18;101587.63;2094641;28;20220;-71
2022/02/21 00:29:47;;;;;;;12.88;9.80;;;;;;;6.24;68.95;101607.41;2088346;28;20186;-71
2022/02/21 00:30:48;;;;;;;12.95;9.32;;;;;;;6.18;69.56;101605.38;2088961;28;20673;-71
2022/02/21 00:31:48;;;;;;;11.10;7.83;;;;;;;6.21;69.44;101610.13;2089000;28;20595;-71
2022/02/21 00:32:49;;;;;;;11.57;8.40;;;;;;;5.88;69.23;101555.94;2089056;28;20270;-71
2022/02/21 00:33:50;;;;;;;10.73;7.70;;;;;;;6.15;69.11;101600.63;2088901;28;20193;-71
2022/02/21 00:34:50;;;;;;;11.13;7.67;;;;;;;6.17;69.69;101604.59;2088980;28;20197;-71
2022/02/21 00:35:51;;;;;;;11.43;8.37;;;;;;;6.17;69.86;101603.78;2088859;28;20293;-71
2022/02/21 00:36:51;;;;;;;10.53;7.53;;;;;;;5.95;69.54;101569.75;2088268;28;20677;-71
2022/02/21 00:37:52;;;;;;;10.23;7.43;;;;;;;6.10;69.81;101601.75;2088866;28;20195;-71
2022/02/21 00:38:52;;;;;;;10.50;7.57;;;;;;;6.14;68.90;101594.31;2088582;28;20198;-71
2022/02/21 00:39:53;;;;;;;9.87;7.17;;;;;;;5.79;68.80;101530.66;2088619;28;20195;-71
2022/02/21 00:40:53;;;;;;;9.23;7.43;;;;;;;6.12;69.18;101582.91;2089017;28;20202;-71
2022/02/21 00:41:54;;;;;;;9.53;7.87;;;;;;;6.14;68.85;101590.78;2088520;28;20231;-71
2022/02/21 00:42:54;;;;;;;9.20;6.97;;;;;;;5.92;68.93;101564.22;2088399;28;20266;-71
2022/02/21 00:43:55;;;;;;;9.80;7.70;;;;;;;6.13;68.75;101591.94;2088882;28;20677;-71
2022/02/21 00:44:57;;;;;;;11.07;7.67;;;;;;;6.12;69.11;101582.13;2088951;28;20237;-71
2022/02/21 00:45:58;;;;;;;9.30;7.47;;;;;;;6.08;69.13;101582.09;2088452;28;20207;-71
2022/02/21 00:47:00;;;;;;;11.00;8.43;;;;;;;6.03;69.08;101590.69;2088821;28;20248;-71
2022/02/21 00:48:00;;;;;;;11.90;8.32;;;;;;;6.03;69.09;101587.94;2090751;28;20210;-71
2022/02/21 00:49:01;;;;;;;11.27;7.93;;;;;;;6.00;69.67;101587.91;2089431;28;20200;-71
2022/02/21 00:50:03;;;;;;;10.48;7.72;;;;;;;5.80;69.06;101559.00;2091156;28;20213;-71
2022/02/21 00:51:03;;;;;;;11.93;8.75;;;;;;;5.99;69.28;101589.06;2082650;28;20283;-71
2022/02/21 00:52:04;;;;;;;12.27;8.57;;;;;;;5.95;69.68;101585.50;2082760;28;20195;-71
2022/02/21 00:53:05;;;;;;;11.87;7.77;;;;;;;5.91;69.62;101577.22;2091700;28;20185;-71
2022/02/21 00:54:05;;;;;;;10.83;8.13;;;;;;;5.91;69.18;101576.41;2091497;28;20672;-71
2022/02/21 00:55:06;;;;;;;10.90;8.20;;;;;;;5.14;69.26;101446.34;2091494;28;20247;-71
2022/02/21 00:56:07;;;;;;;11.68;8.70;;;;;;;5.81;69.30;101569.63;2091060;28;20190;-71
2022/02/21 00:57:07;;;;;;;11.57;8.67;;;;;;;5.80;70.16;101562.53;2091449;28;20218;-72
2022/02/21 00:58:08;;;;;;;10.20;8.17;;;;;;;5.49;69.61;101507.19;2094190;28;20209;-71
2022/02/21 00:59:09;;;;;;;11.53;7.77;;;;;;;5.31;69.49;101479.50;2098838;28;20197;-71
2022/02/21 01:00:10;;;;;;;11.48;8.30;;;;;;;5.82;69.25;101562.97;2099939;28;20186;-71
2022/02/21 01:01:11;;;;;;;10.97;8.03;;;;;;;5.48;69.81;101514.63;2100040;28;20364;-71
2022/02/21 01:02:12;;;;;;;10.83;8.27;;;;;;;5.78;69.70;101556.59;2099992;28;20201;-71
2022/02/21 01:03:13;;;;;;;11.93;9.03;;;;;;;5.40;69.20;101501.19;2099780;28;20196;-71
2022/02/21 01:04:13;;;;;;;13.63;8.77;;;;;;;5.73;69.28;101553.38;2099911;28;20205;-71
2022/02/21 01:05:14;;;;;;;11.80;8.50;;;;;;;5.76;69.35;101552.66;2090802;28;20197;-71
2022/02/21 01:06:17;;;;;;;10.47;8.10;;;;;;;5.76;69.56;101544.38;2090364;28;20579;-71
2022/02/21 01:07:17;;;;;;;11.63;8.55;;;;;;;5.67;69.67;101543.91;2099757;28;20270;-71
2022/02/21 01:08:18;;;;;;;10.40;7.70;;;;;;;5.72;70.08;101547.13;2099973;28;20186;-71
2022/02/21 01:09:18;;;;;;;12.20;8.73;;;;;;;5.73;69.94;101534.13;2098901;28;20181;-71
2022/02/21 01:10:19;;;;;;;12.53;8.60;;;;;;;5.75;69.66;101531.81;2100031;28;20193;-71
2022/02/21 01:11:21;;;;;;;10.17;7.83;;;;;;;5.09;70.14;101427.44;2099705;28;20625;-71
2022/02/21 01:12:21;;;;;;;12.50;8.73;;;;;;;5.22;69.87;101476.25;2099949;28;20185;-71
2022/02/21 01:13:22;;;;;;;11.10;7.90;;;;;;;5.45;70.00;101479.66;2099655;28;20574;-71
2022/02/21 01:14:22;;;;;;;10.67;7.80;;;;;;;4.84;69.87;101391.47;2099987;28;20187;-71
2022/02/21 01:15:23;;;;;;;11.23;8.03;;;;;;;4.82;69.99;101382.00;2099683;28;20223;-71
2022/02/21 01:16:24;;;;;;;10.90;7.33;;;;;;;5.74;69.92;101522.00;2099321;28;20188;-71
2022/02/21 01:17:27;;;;;;;9.98;7.57;;;;;;;4.98;70.06;101418.28;2099744;28;20189;-71
2022/02/21 01:18:27;;;;;;;11.95;8.25;;;;;;;5.26;69.98;101448.81;2099884;28;20266;-71
2022/02/21 01:19:28;;;;;;;10.30;7.63;;;;;;;5.80;69.32;101529.53;2098700;28;20542;-71
2022/02/21 01:20:28;;;;;;;10.50;8.03;;;;;;;5.77;69.22;101526.72;2099950;28;20184;-71
2022/02/21 01:21:29;;;;;;;10.40;7.53;;;;;;;5.59;69.12;101515.53;2099863;28;20616;-71
2022/02/21 01:22:30;;;;;;;10.53;7.50;;;;;;;5.80;68.70;101535.03;2090912;28;20669;-71
2022/02/21 01:23:31;;;;;;;9.82;7.65;;;;;;;5.73;69.03;101532.19;2091060;28;20644;-71
2022/02/21 01:24:31;;;;;;;11.23;7.97;;;;;;;5.72;68.63;101532.56;2099747;28;20581;-71
2022/02/21 01:25:32;;;;;;;9.97;7.30;;;;;;;5.72;68.97;101533.38;2099597;28;20191;-71
2022/02/21 01:26:33;;;;;;;10.93;7.73;;;;;;;5.76;68.60;101533.38;2099243;28;20186;-71
2022/02/21 01:27:34;;;;;;;10.83;7.47;;;;;;;5.52;69.00;101509.97;2099658;28;20184;-71
2022/02/21 01:28:35;;;;;;;10.40;7.47;;;;;;;5.74;69.27;101533.75;2098669;28;20190;-71
2022/02/21 01:29:36;;;;;;;10.33;7.17;;;;;;;5.77;68.96;101533.03;2090492;28;20188;-71
2022/02/21 01:30:36;;;;;;;11.48;7.70;;;;;;;5.77;68.65;101524.75;2091606;28;20183;-71
2022/02/21 01:31:37;;;;;;;9.30;7.03;;;;;;;5.81;69.35;101522.88;2091667;28;20281;-71
2022/02/21 01:32:38;;;;;;;11.10;7.50;;;;;;;4.67;68.59;101353.59;2091594;28;20190;-71
2022/02/21 01:33:39;;;;;;;12.07;7.97;;;;;;;5.79;69.09;101529.91;2091421;28;20235;-71
2022/02/21 01:34:40;;;;;;;10.90;7.43;;;;;;;5.83;69.03;101555.47;2091522;28;20179;-71
2022/02/21 01:35:40;;;;;;;10.30;7.87;;;;;;;5.81;68.48;101527.56;2091309;28;20784;-71
2022/02/21 01:36:41;;;;;;;11.73;7.43;;;;;;;5.80;68.76;101526.00;2090870;28;20424;-71
2022/02/21 01:37:41;;;;;;;10.53;7.73;;;;;;;5.80;68.98;101529.53;2091464;28;20194;-71
2022/02/21 01:38:42;;;;;;;9.60;7.83;;;;;;;5.78;68.82;101529.09;2091445;28;20275;-71
2022/02/21 01:39:42;;;;;;;9.10;7.57;;;;;;;5.73;68.54;101525.88;2090538;28;20557;-71
2022/02/21 01:40:43;;;;;;;10.77;7.83;;;;;;;5.69;68.29;101517.59;2091596;28;20222;-71
2022/02/21 01:41:43;;;;;;;11.23;8.47;;;;;;;5.61;68.67;101521.47;2091218;28;20234;-72
2022/02/21 01:42:44;;;;;;;11.43;7.60;;;;;;;4.57;68.47;101354.25;2091566;28;20191;-71
2022/02/21 01:43:47;;;;;;;11.40;8.00;;;;;;;5.61;68.82;101515.97;2091422;28;20194;-71
2022/02/21 01:44:48;;;;;;;9.75;8.25;;;;;;;5.58;68.83;101505.72;2091548;28;20196;-71
2022/02/21 01:45:49;;;;;;;11.15;8.07;;;;;;;5.60;68.82;101510.84;2091398;28;20194;-71
2022/02/21 01:46:49;;;;;;;9.30;7.60;;;;;;;5.62;68.50;101508.50;2090805;28;20672;-71
2022/02/21 01:47:50;;;;;;;10.93;8.60;;;;;;;5.29;68.62;101454.34;2091858;28;20221;-71
2022/02/21 01:48:50;;;;;;;10.23;7.70;;;;;;;5.61;68.35;101509.66;2093852;28;20677;-71
2022/02/21 01:49:51;;;;;;;10.53;7.53;;;;;;;5.61;68.64;101502.22;2090819;28;20727;-71
2022/02/21 01:50:52;;;;;;;9.80;7.93;;;;;;;5.61;68.96;101501.41;2091601;28;20203;-71
2022/02/21 01:51:52;;;;;;;10.70;7.37;;;;;;;5.63;68.60;101505.38;2091400;28;20196;-71
2022/02/21 01:52:53;;;;;;;9.77;7.83;;;;;;;5.00;68.07;101399.47;2091731;28;20246;-71
2022/02/21 01:53:57;;;;;;;10.30;7.78;;;;;;;4.74;67.89;101375.66;2091331;28;20241;-71
2022/02/21 01:54:59;;;;;;;8.93;7.35;;;;;;;5.65;67.94;101502.25;2091387;28;20193;-71
2022/02/21 01:55:59;;;;;;;10.07;7.90;;;;;;;4.91;68.11;101374.25;2090529;28;20218;-71
2022/02/21 01:57:00;;;;;;;11.13;8.20;;;;;;;5.66;68.69;101490.06;2091251;28;20193;-71
2022/02/21 01:58:01;;;;;;;11.27;8.03;;;;;;;5.66;68.36;101488.13;2091349;28;20186;-72
2022/02/21 01:59:03;;;;;;;10.47;8.27;;;;;;;5.66;68.61;101488.13;2090422;28;20249;-71
2022/02/21 02:00:04;;;;;;;11.07;7.65;;;;;;;5.66;67.94;101488.13;2091276;28;20185;-71
2022/02/21 02:01:05;;;;;;;11.43;8.00;;;;;;;5.66;68.62;101490.88;2089863;28;20220;-71
2022/02/21 02:02:06;;;;;;;10.43;7.73;;;;;;;5.67;68.22;101492.44;2089619;28;20189;-71
2022/02/21 02:03:07;;;;;;;9.75;7.10;;;;;;;5.67;68.50;101481.44;2090061;28;20570;-71
2022/02/21 02:04:10;;;;;;;10.50;7.50;;;;;;;5.70;68.47;101485.41;2090175;28;20209;-71
2022/02/21 02:05:12;;;;;;;9.95;7.78;;;;;;;5.13;67.92;101393.31;2090110;28;20181;-71
2022/02/21 02:06:13;;;;;;;9.10;6.90;;;;;;;5.70;68.31;101477.94;2089567;28;20230;-71
2022/02/21 02:07:14;;;;;;;9.40;8.03;;;;;;;5.69;68.22;101473.59;2089872;28;20185;-71
2022/02/21 02:08:15;;;;;;;8.45;6.57;;;;;;;5.70;68.58;101471.66;2090106;28;20510;-71
2022/02/21 02:09:15;;;;;;;9.27;7.03;;;;;;;5.71;68.31;101465.78;2089024;28;20578;-71
2022/02/21 02:10:17;;;;;;;9.83;6.77;;;;;;;5.73;68.39;101465.38;2089888;28;20271;-71
2022/02/21 02:11:18;;;;;;;9.90;7.38;;;;;;;5.67;67.84;101458.66;2089909;28;20182;-71
2022/02/21 02:12:18;;;;;;;10.10;7.60;;;;;;;5.80;68.38;101473.75;2090217;28;20728;-71
2022/02/21 02:13:20;;;;;;;9.03;7.37;;;;;;;5.75;68.31;101463.06;2089956;28;20733;-71
2022/02/21 02:14:29;;;;;;;9.55;7.57;;;;;;;5.51;67.72;101436.91;2090255;28;20208;-71
2022/02/21 02:15:29;;;;;;;8.60;7.05;;;;;;;5.24;67.52;101388.72;2089804;28;20610;-71
2022/02/21 02:16:30;;;;;;;9.53;7.37;;;;;;;5.69;67.51;101462.59;2089265;28;20271;-71
2022/02/21 02:17:31;;;;;;;9.67;7.47;;;;;;;5.68;68.24;101468.47;2090063;28;20209;-71
2022/02/21 02:18:32;;;;;;;9.85;7.63;;;;;;;5.66;68.46;101459.81;2090079;28;20191;-71
2022/02/21 02:19:32;;;;;;;9.73;7.80;;;;;;;4.29;69.04;101277.09;2088838;28;20301;-71
2022/02/21 02:20:33;;;;;;;10.50;7.60;;;;;;;5.43;69.47;101465.50;2090109;28;20618;-71
2022/02/21 02:21:37;;;;;;;10.43;8.27;;;;;;;5.34;70.21;101467.75;2089804;28;20190;-71
2022/02/21 02:22:40;;;;;;;11.55;8.18;;;;;;;5.29;70.85;101448.06;2081026;28;20193;-71
2022/02/21 02:23:40;;;;;;;9.93;8.05;;;;;;;5.42;70.64;101461.16;2081119;28;20187;-71
2022/02/21 02:24:43;;;;;;;11.50;8.47;;;;;;;5.45;70.47;101454.13;2090038;28;20648;-71
2022/02/21 02:25:43;;;;;;;9.48;7.80;;;;;;;5.47;70.16;101457.28;2089820;28;20699;-71
2022/02/21 02:26:44;;;;;;;9.47;7.70;;;;;;;5.49;69.75;101461.22;2080469;28;20623;-71
2022/02/21 02:27:45;;;;;;;10.53;7.97;;;;;;;5.50;69.31;101454.59;2081034;28;20645;-71
2022/02/21 02:28:49;;;;;;;9.45;7.30;;;;;;;5.50;69.89;101451.03;2089711;28;20190;-71
2022/02/21 02:29:53;;;;;;;10.05;7.43;;;;;;;4.81;69.80;101336.47;2092784;28;20192;-71
2022/02/21 02:30:53;;;;;;;9.77;7.75;;;;;;;5.51;69.99;101442.41;2098106;28;20668;-71
2022/02/21 02:31:55;;;;;;;10.83;7.87;;;;;;;5.44;70.14;101430.56;2098105;28;20616;-71
2022/02/21 02:32:55;;;;;;;9.30;7.50;;;;;;;5.48;70.28;101429.41;2098146;28;20606;-71
2022/02/21 02:33:56;;;;;;;10.33;7.83;;;;;;;5.46;70.27;101436.47;2098010;28;20193;-71
2022/02/21 02:34:57;;;;;;;9.67;7.67;;;;;;;5.45;70.41;101432.94;2098111;28;20264;-71
2022/02/21 02:35:57;;;;;;;10.45;7.70;;;;;;;5.44;70.51;101436.06;2097485;28;20362;-71
2022/02/21 02:36:58;;;;;;;11.70;7.63;;;;;;;5.37;70.55;101434.03;2097859;28;20182;-71
2022/02/21 02:37:59;;;;;;;10.30;7.57;;;;;;;5.36;70.92;101432.44;2097998;28;20177;-71
2022/02/21 02:38:59;;;;;;;10.23;7.70;;;;;;;5.41;70.85;101434.03;2097166;28;20190;-71
2022/02/21 02:40:00;;;;;;;10.87;7.50;;;;;;;5.40;70.45;101443.47;2098123;28;20563;-71
2022/02/21 02:41:01;;;;;;;9.10;7.07;;;;;;;5.38;70.19;101430.09;2097925;28;20623;-71
2022/02/21 02:42:02;;;;;;;10.00;7.70;;;;;;;5.13;71.08;101420.03;2098089;28;20549;-71
2022/02/21 02:43:03;;;;;;;9.25;7.53;;;;;;;5.14;71.05;101425.13;2098303;28;20193;-71
2022/02/21 02:44:03;;;;;;;9.47;7.27;;;;;;;4.64;71.35;101353.56;2097820;28;20216;-71
2022/02/21 02:45:04;;;;;;;7.97;7.13;;;;;;;4.31;71.54;101304.16;2098054;28;20813;-71
2022/02/21 02:46:05;;;;;;;9.45;7.43;;;;;;;5.12;72.23;101435.72;2094937;28;20555;-71
2022/02/21 02:47:07;;;;;;;9.97;7.07;;;;;;;4.39;72.36;101323.06;2089823;28;20241;-71
2022/02/21 02:48:08;;;;;;;8.50;6.88;;;;;;;4.55;72.09;101356.59;2092647;28;20181;-71
2022/02/21 02:49:08;;;;;;;8.93;7.03;;;;;;;4.46;72.16;101338.84;2080385;28;20276;-71
2022/02/21 02:50:09;;;;;;;9.13;7.33;;;;;;;5.03;72.49;101428.94;2080998;28;20187;-71
2022/02/21 02:51:09;;;;;;;9.47;7.13;;;;;;;5.07;72.33;101436.03;2089704;28;20251;-71
2022/02/21 02:52:10;;;;;;;9.57;7.27;;;;;;;5.13;72.00;101437.28;2089789;28;20195;-71
2022/02/21 02:53:12;;;;;;;9.80;7.28;;;;;;;5.15;71.92;101432.22;2089653;28;20648;-71
2022/02/21 02:54:13;;;;;;;9.77;7.03;;;;;;;5.09;71.74;101408.22;2089743;28;20225;-71
2022/02/21 02:55:14;;;;;;;9.70;7.38;;;;;;;5.10;71.46;101409.78;2089525;28;20622;-71
2022/02/21 02:56:14;;;;;;;9.33;7.10;;;;;;;5.11;70.92;101417.66;2088886;28;20309;-71
2022/02/21 02:57:15;;;;;;;7.70;6.90;;;;;;;5.19;70.28;101424.78;2089479;28;20177;-71
2022/02/21 02:58:15;;;;;;;8.83;7.33;;;;;;;4.78;70.48;101368.22;2089694;28;20189;-71
2022/02/21 02:59:16;;;;;;;10.37;7.17;;;;;;;5.16;70.47;101422.00;2088637;28;20186;-71
2022/02/21 03:00:17;;;;;;;9.23;7.33;;;;;;;5.16;70.46;101428.31;2089789;28;20214;-71
2022/02/21 03:01:18;;;;;;;9.63;6.97;;;;;;;5.13;69.67;101425.53;2089577;28;20191;-71
2022/02/21 03:02:18;;;;;;;12.13;7.40;;;;;;;4.97;69.72;101413.97;2089817;28;20195;-71
2022/02/21 03:03:19;;;;;;;10.53;8.00;;;;;;;4.93;70.53;101426.88;2089590;28;20188;-71
2022/02/21 03:04:20;;;;;;;9.67;8.00;;;;;;;4.87;71.60;101431.88;2089736;28;20241;-71
2022/02/21 03:05:20;;;;;;;10.30;8.47;;;;;;;4.89;70.97;101424.09;2089427;28;20226;-71
2022/02/21 03:06:21;;;;;;;10.33;7.83;;;;;;;4.88;71.26;101429.94;2089122;28;20188;-71
2022/02/21 03:07:22;;;;;;;11.47;8.17;;;;;;;4.90;71.10;101428.41;2089372;28;20190;-71
2022/02/21 03:08:22;;;;;;;11.23;8.63;;;;;;;4.86;70.73;101422.06;2089771;28;20574;-71
2022/02/21 03:09:23;;;;;;;10.10;8.17;;;;;;;4.35;71.21;101355.16;2088680;28;20666;-71
2022/02/21 03:10:23;;;;;;;11.40;8.33;;;;;;;4.09;71.27;101313.25;2080681;28;20196;-71
2022/02/21 03:11:24;;;;;;;9.90;7.93;;;;;;;4.88;71.04;101435.44;2080610;28;20215;-71
2022/02/21 03:12:26;;;;;;;12.47;8.13;;;;;;;4.74;70.87;101416.84;2089298;28;20685;-71
2022/02/21 03:13:27;;;;;;;10.32;8.13;;;;;;;4.88;71.35;101427.19;2089421;28;20266;-71
2022/02/21 03:14:27;;;;;;;10.70;8.23;;;;;;;4.86;71.40;101430.31;2089507;28;20730;-71
2022/02/21 03:15:28;;;;;;;11.93;8.43;;;;;;;4.85;71.29;101427.94;2089433;28;20571;-71
2022/02/21 03:16:28;;;;;;;11.80;8.50;;;;;;;4.83;71.23;101422.81;2088925;28;20181;-71
2022/02/21 03:17:29;;;;;;;12.27;8.73;;;;;;;4.81;71.61;101425.16;2089438;28;20181;-71
2022/02/21 03:18:30;;;;;;;12.27;9.33;;;;;;;4.80;71.87;101420.81;2089573;28;20234;-71
2022/02/21 03:19:30;;;;;;;11.63;8.60;;;;;;;4.80;71.69;101426.31;2088385;28;20183;-71
2022/02/21 03:20:31;;;;;;;9.80;7.73;;;;;;;4.82;71.20;101420.47;2080906;28;20699;-71
2022/02/21 03:21:31;;;;;;;11.83;8.43;;;;;;;4.76;71.75;101433.72;2080537;28;20665;-71
2022/02/21 03:22:32;;;;;;;12.40;8.30;;;;;;;4.78;71.11;101436.88;2089558;28;20189;-71
2022/02/21 03:23:32;;;;;;;12.27;8.40;;;;;;;4.80;71.38;101429.06;2089359;28;20187;-71
2022/02/21 03:24:33;;;;;;;10.93;8.40;;;;;;;3.81;71.08;101264.34;2089575;28;20191;-71
2022/02/21 03:25:33;;;;;;;9.13;7.30;;;;;;;4.80;70.16;101425.53;2089263;28;20179;-71
2022/02/21 03:26:34;;;;;;;10.53;7.33;;;;;;;4.72;69.62;101416.41;2088643;28;20186;-71
2022/02/21 03:27:43;;;;;;;10.13;7.70;;;;;;;4.49;70.05;101373.75;2089316;28;20187;-71
2022/02/21 03:28:44;;;;;;;10.68;7.97;;;;;;;4.52;70.99;101382.03;2091896;28;20202;-71
2022/02/21 03:29:44;;;;;;;11.77;7.87;;;;;;;4.80;70.74;101417.28;2096732;28;20214;-71
2022/02/21 03:30:46;;;;;;;9.67;7.67;;;;;;;4.74;70.80;101410.53;2097705;28;20615;-71
2022/02/21 03:31:46;;;;;;;9.68;7.90;;;;;;;4.34;70.55;101353.59;2097638;28;20213;-71
2022/02/21 03:32:47;;;;;;;10.03;7.80;;;;;;;4.82;70.44;101421.22;2097689;28;20210;-71
2022/02/21 03:33:48;;;;;;;10.43;8.40;;;;;;;4.74;70.43;101405.06;2097589;28;20191;-71
2022/02/21 03:34:49;;;;;;;10.40;8.07;;;;;;;4.34;70.17;101350.03;2097541;28;20578;-71
2022/02/21 03:35:50;;;;;;;11.05;7.93;;;;;;;4.68;70.21;101406.56;2097462;28;20303;-71
2022/02/21 03:36:50;;;;;;;10.37;7.77;;;;;;;4.69;70.21;101416.38;2096969;28;20208;-71
2022/02/21 03:37:51;;;;;;;12.03;8.70;;;;;;;4.61;70.93;101415.47;2097657;28;20270;-71
2022/02/21 03:38:51;;;;;;;11.30;8.00;;;;;;;4.63;70.35;101418.66;2097250;28;20272;-71
2022/02/21 03:39:52;;;;;;;10.50;8.00;;;;;;;4.66;70.72;101428.09;2096942;28;20269;-71
2022/02/21 03:40:52;;;;;;;11.07;8.53;;;;;;;4.67;71.10;101424.97;2097582;28;20186;-71
2022/02/21 03:41:53;;;;;;;11.60;8.67;;;;;;;4.67;71.56;101429.69;2097342;28;20657;-71
2022/02/21 03:42:53;;;;;;;13.77;10.27;;;;;;;4.50;71.75;101397.28;2097558;28;20286;-71
2022/02/21 03:43:54;;;;;;;13.37;11.50;;;;;;;4.52;71.80;101386.75;2097541;28;20191;-71
2022/02/21 03:44:54;;;;;;;12.83;10.80;;;;;;;4.57;72.28;101411.91;2097599;28;20202;-71
2022/02/21 03:45:55;;;;;;;22.53;15.97;;;;;;;4.57;72.81;101411.91;2097330;28;20175;-71
2022/02/21 03:46:56;;;;;;;13.87;11.00;;;;;;;4.22;72.40;101351.09;2097259;28;20730;-71
2022/02/21 03:47:56;;;;;;;17.13;14.07;;;;;;;3.78;73.13;101327.31;2096041;28;20182;-71
2022/02/21 03:48:57;;;;;;;13.37;11.23;;;;;;;4.44;73.59;101407.00;2094867;28;20190;-71
2022/02/21 03:49:58;;;;;;;16.20;12.43;;;;;;;4.53;73.74;101404.78;2088476;28;20274;-71
2022/02/21 03:50:58;;;;;;;16.33;12.93;;;;;;;4.60;73.66;101424.88;2088754;28;20645;-71
2022/02/21 03:51:59;;;;;;;12.43;10.77;;;;;;;4.64;72.82;101402.97;2097441;28;20182;-71
2022/02/21 03:52:59;;;;;;;13.27;11.40;;;;;;;4.67;72.51;101403.00;2097639;28;20261;-71
2022/02/21 03:54:00;;;;;;;13.23;11.23;;;;;;;4.71;72.59;101394.81;2097396;28;20657;-71
2022/02/21 03:55:01;;;;;;;15.07;11.17;;;;;;;4.66;72.11;101389.69;2097314;28;20235;-71
2022/02/21 03:56:01;;;;;;;14.27;9.00;;;;;;;4.60;72.55;101385.66;2096582;28;20297;-70
2022/02/21 03:57:02;;;;;;;13.03;8.90;;;;;;;4.61;72.65;101393.53;2097316;28;20179;-71
2022/02/21 03:58:03;;;;;;;10.90;8.97;;;;;;;4.66;72.19;101390.44;2095343;28;20189;-71
2022/02/21 03:59:04;;;;;;;10.02;8.30;;;;;;;4.68;71.39;101387.34;2088317;28;20179;-71
2022/02/21 04:00:08;;;;;;;11.00;8.70;;;;;;;4.70;71.26;101390.47;2089199;28;20207;-71
2022/02/21 04:01:09;;;;;;;11.35;8.32;;;;;;;4.67;71.25;101388.50;2089183;28;20175;-71
2022/02/21 04:02:09;;;;;;;10.57;8.83;;;;;;;4.68;70.95;101376.34;2089165;28;20179;-71
2022/02/21 04:03:10;;;;;;;11.37;8.77;;;;;;;4.68;70.22;101377.16;2080259;28;20760;-71
2022/02/21 04:04:10;;;;;;;9.73;7.93;;;;;;;4.62;70.90;101373.13;2080436;28;20184;-70
2022/02/21 04:05:14;;;;;;;11.23;8.60;;;;;;;4.37;71.29;101344.59;2089172;28;20668;-71
2022/02/21 04:06:14;;;;;;;11.40;8.70;;;;;;;4.54;71.37;101367.94;2088504;28;20622;-71
2022/02/21 04:07:15;;;;;;;11.10;8.57;;;;;;;4.45;71.21;101360.00;2088981;28;20211;-72
2022/02/21 04:08:15;;;;;;;12.77;9.07;;;;;;;4.45;71.07;101361.94;2089185;28;20194;-71
2022/02/21 04:09:16;;;;;;;11.57;9.27;;;;;;;4.46;70.24;101356.06;2088153;28;20254;-72
2022/02/21 04:10:18;;;;;;;14.40;9.60;;;;;;;4.50;70.35;101353.38;2089155;28;20237;-71
2022/02/21 04:11:19;;;;;;;12.40;9.68;;;;;;;4.48;70.06;101358.47;2088952;28;20196;-71
2022/02/21 04:12:19;;;;;;;14.60;10.30;;;;;;;3.93;70.67;101263.28;2089247;28;20668;-71
2022/02/21 04:13:20;;;;;;;12.80;10.30;;;;;;;4.49;70.41;101357.28;2089010;28;20202;-71
2022/02/21 04:14:20;;;;;;;13.73;9.80;;;;;;;4.47;70.98;101349.41;2089414;28;20731;-71
2022/02/21 04:15:21;;;;;;;12.40;10.37;;;;;;;4.01;71.30;101270.47;2088886;28;20257;-71
2022/02/21 04:16:22;;;;;;;16.27;13.07;;;;;;;4.50;71.55;101345.94;2088554;28;20583;-71
2022/02/21 04:17:23;;;;;;;12.03;9.67;;;;;;;4.03;72.14;101259.91;2088925;28;20757;-71
2022/02/21 04:18:24;;;;;;;11.95;9.48;;;;;;;4.57;72.41;101339.75;2089141;28;20182;-71
2022/02/21 04:19:25;;;;;;;12.98;10.18;;;;;;;3.90;72.63;101228.41;2087954;28;20241;-71
2022/02/21 04:20:27;;;;;;;12.40;10.33;;;;;;;3.52;71.41;101157.41;2089185;28;20654;-71
2022/02/21 04:21:29;;;;;;;11.32;9.45;;;;;;;4.64;71.15;101332.38;2088909;28;20178;-71
2022/02/21 04:22:29;;;;;;;11.93;9.45;;;;;;;4.30;70.37;101284.16;2089040;28;20199;-71
2022/02/21 04:23:30;;;;;;;13.17;9.47;;;;;;;4.65;70.24;101328.47;2088885;28;20279;-71
2022/02/21 04:24:30;;;;;;;12.43;10.10;;;;;;;4.61;70.45;101324.88;2088455;28;20207;-71
2022/02/21 04:25:31;;;;;;;11.93;10.37;;;;;;;4.65;70.13;101333.97;2088854;28;20190;-71
2022/02/21 04:26:32;;;;;;;16.03;11.20;;;;;;;4.65;69.82;101324.94;2079402;28;20553;-71
2022/02/21 04:27:53;;;;;;;14.33;9.77;;;;;;;4.39;69.24;101292.88;2080107;28;20198;-71
2022/02/21 04:28:53;;;;;;;13.13;9.13;;;;;;;4.61;69.28;101329.59;2088436;28;20191;-71
2022/02/21 04:29:54;;;;;;;11.73;9.33;;;;;;;4.61;69.04;101332.34;2092916;28;20181;-71
2022/02/21 04:30:54;;;;;;;14.17;9.53;;;;;;;4.51;68.39;101317.31;2097324;28;20261;-71
2022/02/21 04:31:55;;;;;;;12.33;9.20;;;;;;;4.58;68.38;101333.88;2097235;28;20265;-71
2022/02/21 04:32:56;;;;;;;13.37;9.50;;;;;;;4.56;67.95;101329.94;2097304;28;20617;-71
2022/02/21 04:33:57;;;;;;;15.57;9.65;;;;;;;4.02;68.45;101244.63;2097168;28;20214;-71
2022/02/21 04:34:57;;;;;;;17.93;9.63;;;;;;;4.07;68.07;101258.81;2097353;28;20563;-71
2022/02/21 04:35:58;;;;;;;15.63;9.63;;;;;;;4.51;68.45;101328.31;2096694;28;20665;-71
2022/02/21 04:36:58;;;;;;;12.73;8.63;;;;;;;4.49;68.58;101318.88;2097118;28;20674;-71
2022/02/21 04:37:59;;;;;;;11.50;9.10;;;;;;;3.71;68.01;101204.66;2097205;28;20667;-71
2022/02/21 04:38:59;;;;;;;12.97;9.70;;;;;;;4.15;69.10;101279.66;2096235;28;20188;-71
2022/02/21 04:40:01;;;;;;;14.17;9.50;;;;;;;4.42;68.91;101321.53;2097203;28;20451;-71
2022/02/21 04:41:01;;;;;;;14.05;9.80;;;;;;;4.37;68.62;101319.88;2097077;28;20186;-71
2022/02/21 04:42:02;;;;;;;12.90;9.60;;;;;;;4.36;67.75;101312.06;2097230;28;20253;-71
2022/02/21 04:43:02;;;;;;;12.67;9.40;;;;;;;4.26;67.65;101307.22;2097201;28;20211;-71
2022/02/21 04:44:04;;;;;;;15.53;9.77;;;;;;;4.31;67.40;101320.63;2097193;28;20185;-71